Wetona, Pennsylvania
Current Conditions -  °F | °C
As of 12:53 AM on Wednesday 22 Oct 2014 (Local Time) from KELM Reporting Station
Overcast Overcast  
Wind Chill: 50°   Ceiling: 600
Heat Index: 50°   Visibility: 7mi
Dew Point: 49°   Wind: 7mph
Humidity: 96%   Direction: 20°NNE
Pressure: 30"   Gusts: NA
Location:  41.8495°N, 76.7925°W
Report Text: KELM 220453Z AUTO 02006KT 7SM OVC006 10/09 A3000 RMK AO2 CIG 005V011 SLP160 T01000094 401330078
Loading
Personal Weather Stations






























Interactive Weather Map
Tropical Storm Tracking
New forecast layout! Learn more

10-Day Weather Forecast

Advertisements
Track Severe Weather on mobile